Time;durP1;ratioP1;P1;durP2;ratioP2;P2;SDS_P1;SDS_P2;PMS_P1;PMS_P2;Temp;Humidity;BMP_temperature;BMP_pressure;BME280_temperature;BME280_humidity;BME280_pressure;Samples;Min_cycle;Max_cycle;Signal;HPM_P1;HPM_P2
2023/06/04 19:59:28;;;;;;;11.70;6.60;;;;;;;-144.73;33.77;85678.61;104436;1304;544785;-62
2023/06/04 20:02:15;;;;;;;11.50;4.90;;;;;;;-144.73;34.18;84671.13;105804;1288;22533;-64
2023/06/04 20:05:02;;;;;;;7.40;3.30;;;;;;;-144.73;34.03;84676.66;106058;1279;25243;-65
2023/06/04 20:07:48;;;;;;;7.60;2.70;;;;;;;-144.73;33.91;84660.45;105618;1286;62754;-64
2023/06/04 20:12:11;;;;;;;7.30;3.00;;;;;;;-144.73;33.86;85708.66;101249;1312;2751814;-62
2023/06/04 20:14:57;;;;;;;10.50;2.70;;;;;;;-144.73;33.67;84673.11;105684;1289;65229;-65
2023/06/04 20:17:44;;;;;;;6.90;2.70;;;;;;;-144.73;33.92;84677.45;106571;1289;22630;-63
2023/06/04 20:20:30;;;;;;;7.60;2.90;;;;;;;-144.73;34.12;84672.70;107426;1283;25365;-63
2023/06/04 20:23:18;;;;;;;5.40;2.50;;;;;;;-144.73;34.09;84663.22;106386;1283;25259;-65
2023/06/04 20:26:04;;;;;;;7.00;2.40;;;;;;;-144.73;34.22;84680.23;106409;1281;200384;-64
2023/06/04 20:28:52;;;;;;;10.40;2.40;;;;;;;-144.73;34.23;84685.75;106689;1281;22784;-64
2023/06/04 20:31:38;;;;;;;6.90;2.50;;;;;;;-144.73;34.38;84674.29;106389;1281;22750;-62
2023/06/04 20:34:25;;;;;;;14.90;3.10;;;;;;;-144.73;34.57;84677.85;106370;1279;22646;-64
2023/06/04 20:37:12;;;;;;;10.10;2.90;;;;;;;-144.73;34.61;84690.10;106552;1279;22539;-64
2023/06/04 20:39:58;;;;;;;7.10;2.80;;;;;;;-144.73;34.66;84699.59;106369;1281;22531;-65
2023/06/04 20:42:48;;;;;;;5.70;2.80;;;;;;;-144.73;34.86;84711.45;106531;1281;22537;-63
2023/06/04 20:45:34;;;;;;;7.30;3.10;;;;;;;-144.73;34.95;84702.75;106635;1279;22523;-65
2023/06/04 20:48:20;;;;;;;8.00;2.90;;;;;;;-144.73;35.11;84725.68;106639;1278;22537;-64
2023/06/04 20:51:06;;;;;;;7.60;2.90;;;;;;;-144.73;35.18;84722.91;106553;1281;24265;-62
2023/06/04 20:53:52;;;;;;;5.40;2.90;;;;;;;-144.73;35.26;84726.86;106615;1276;25319;-62
2023/06/04 20:56:38;;;;;;;8.70;3.30;;;;;;;-144.73;35.39;84742.68;106612;1281;25353;-62
2023/06/04 20:59:25;;;;;;;7.30;2.80;;;;;;;-144.73;35.53;84741.89;106569;1280;25226;-64
2023/06/04 21:02:25;;;;;;;6.40;3.50;;;;;;;-144.73;36.34;85798.05;103500;1305;545343;-68
2023/06/04 21:05:12;;;;;;;9.70;3.10;;;;;;;-144.73;36.17;84742.67;103843;1288;2669554;-66
2023/06/04 21:07:58;;;;;;;6.10;2.40;;;;;;;-144.73;35.94;84753.74;105791;1289;22526;-66
2023/06/04 21:10:47;;;;;;;6.70;3.20;;;;;;;-144.73;36.06;84760.86;105771;1288;22645;-67
2023/06/04 21:13:34;;;;;;;8.20;2.80;;;;;;;-144.73;36.23;84769.16;105838;1289;25360;-67
2023/06/04 21:16:20;;;;;;;9.90;3.80;;;;;;;-144.73;36.39;84787.73;109581;1286;206652;-68
2023/06/04 21:19:06;;;;;;;7.70;2.80;;;;;;;-144.73;36.47;84783.79;109796;1280;22166;-70
2023/06/04 21:21:53;;;;;;;7.00;3.10;;;;;;;-144.73;36.52;84793.67;109860;1264;22124;-68
2023/06/04 21:24:38;;;;;;;7.30;3.40;;;;;;;-144.73;36.66;84798.81;109798;1286;22864;-69
2023/06/04 21:27:25;;;;;;;6.50;2.80;;;;;;;-144.73;36.73;84798.41;109807;1286;22935;-67
2023/06/04 21:30:11;;;;;;;11.80;3.60;;;;;;;-144.73;36.78;84807.11;109787;1286;22146;-68
2023/06/04 21:32:57;;;;;;;6.80;2.90;;;;;;;-144.73;36.89;84817.79;109783;1286;22780;-67
2023/06/04 21:35:43;;;;;;;5.30;2.10;;;;;;;-144.73;36.90;84814.23;109782;1286;22138;-65
2023/06/04 21:38:29;;;;;;;5.80;1.80;;;;;;;-144.73;36.54;84804.35;109783;1286;22137;-67
2023/06/04 21:41:15;;;;;;;6.40;2.50;;;;;;;-144.73;36.61;84818.98;109808;1280;22184;-65
2023/06/04 21:44:01;;;;;;;3.90;1.80;;;;;;;-144.73;36.42;84800.80;109787;1286;22152;-65
2023/06/04 21:46:47;;;;;;;6.30;1.80;;;;;;;-144.73;36.40;84814.63;109798;1286;22844;-65
2023/06/04 21:49:33;;;;;;;8.30;1.80;;;;;;;-144.73;36.41;84824.51;109788;1286;22757;-63
2023/06/04 21:52:19;;;;;;;4.30;1.90;;;;;;;-144.73;36.51;84828.46;109802;1286;22206;-62
2023/06/04 21:55:10;;;;;;;6.20;1.90;;;;;;;-144.73;36.52;84850.99;109809;1286;22203;-67
2023/06/04 21:57:57;;;;;;;3.80;1.70;;;;;;;-144.73;36.57;84843.88;109791;1286;22146;-64
2023/06/04 22:00:43;;;;;;;4.70;2.10;;;;;;;-144.73;36.64;84853.77;109795;1286;22145;-63
2023/06/04 22:03:29;;;;;;;6.20;1.90;;;;;;;-144.73;36.69;84862.06;109780;1286;22125;-66
2023/06/04 22:06:16;;;;;;;5.80;1.80;;;;;;;-144.73;36.93;84869.17;109789;1286;22097;-64
2023/06/04 22:09:03;;;;;;;7.30;2.20;;;;;;;-144.73;37.01;84858.11;109805;1286;22126;-59
2023/06/04 22:11:49;;;;;;;8.70;2.50;;;;;;;-144.73;37.23;84870.77;109793;1286;22885;-63
2023/06/04 22:14:37;;;;;;;17.80;2.80;;;;;;;-144.73;37.45;84885.39;109785;1286;22122;-66
2023/06/04 22:17:23;;;;;;;4.50;2.10;;;;;;;-144.73;37.44;84884.20;109783;1286;22753;-62
2023/06/04 22:20:09;;;;;;;6.90;3.30;;;;;;;-144.73;37.56;84879.46;109802;1286;22138;-61
2023/06/04 22:22:56;;;;;;;7.20;3.60;;;;;;;-144.73;37.83;84898.44;109779;1286;22804;-62
2023/06/04 22:25:43;;;;;;;11.30;4.90;;;;;;;-144.73;38.48;84901.60;109786;1286;22129;-63
2023/06/04 22:28:29;;;;;;;9.70;5.40;;;;;;;-144.73;39.59;84901.98;109791;1286;22247;-63
2023/06/04 22:31:15;;;;;;;12.40;6.10;;;;;;;-144.73;40.01;84917.02;109777;1286;22127;-63
2023/06/04 22:34:01;;;;;;;14.60;6.20;;;;;;;-144.73;40.24;84924.13;110252;1278;22091;-63
2023/06/04 22:36:47;;;;;;;14.20;6.00;;;;;;;-144.73;40.59;84924.13;110304;1278;22128;-62
2023/06/04 22:39:33;;;;;;;12.30;5.10;;;;;;;-144.73;40.46;84939.15;110579;1256;22125;-62
2023/06/04 22:42:19;;;;;;;7.60;3.60;;;;;;;-144.73;39.70;84937.96;110298;1278;22719;-61
2023/06/04 22:45:07;;;;;;;9.40;4.20;;;;;;;-144.73;38.85;84926.11;110140;1277;22138;-62
2023/06/04 22:47:53;;;;;;;9.70;4.20;;;;;;;-144.73;38.78;84918.99;110290;1278;22852;-62
2023/06/04 22:50:40;;;;;;;11.10;5.20;;;;;;;-144.73;38.37;84912.66;110169;1278;22223;-62
2023/06/04 22:53:27;;;;;;;18.50;6.70;;;;;;;-144.73;38.31;84906.73;110283;1278;22143;-62
2023/06/04 22:56:15;;;;;;;9.40;5.40;;;;;;;-144.73;38.10;84896.06;110196;1278;22193;-62
2023/06/04 22:59:01;;;;;;;10.80;5.20;;;;;;;-144.73;37.91;84902.39;110372;1256;22185;-62
2023/06/04 23:01:48;;;;;;;6.80;3.30;;;;;;;-144.73;37.43;84901.20;110286;1278;22117;-62
2023/06/04 23:04:34;;;;;;;6.00;2.80;;;;;;;-144.73;37.52;84896.06;110193;1278;22140;-62
2023/06/04 23:07:21;;;;;;;6.30;2.80;;;;;;;-144.73;37.59;84887.36;110165;1278;22184;-62
2023/06/04 23:10:07;;;;;;;7.80;4.20;;;;;;;-144.73;37.81;84906.34;110290;1278;22143;-61
2023/06/04 23:12:53;;;;;;;13.10;4.20;;;;;;;-144.73;38.06;84886.17;110295;1278;22132;-62
2023/06/04 23:15:39;;;;;;;6.70;3.50;;;;;;;-144.73;37.75;84896.45;110166;1278;22092;-62
2023/06/04 23:18:25;;;;;;;8.40;3.00;;;;;;;-144.73;37.08;84883.41;110161;1278;22177;-64
2023/06/04 23:21:11;;;;;;;10.30;3.00;;;;;;;-144.73;36.77;84909.11;110304;1278;22202;-63
2023/06/04 23:23:57;;;;;;;12.00;2.90;;;;;;;-144.73;36.58;84905.16;110320;1258;22130;-61
2023/06/04 23:26:43;;;;;;;8.70;2.80;;;;;;;-144.73;36.78;84907.92;110299;1278;22147;-63
2023/06/04 23:29:29;;;;;;;11.60;2.70;;;;;;;-144.73;36.35;84910.69;110280;1278;22211;-62
2023/06/04 23:32:15;;;;;;;6.00;2.20;;;;;;;-144.73;36.03;84894.48;110313;1278;22134;-62
2023/06/04 23:35:01;;;;;;;7.00;2.10;;;;;;;-144.73;35.87;84908.71;110278;1278;22576;-62
2023/06/04 23:37:47;;;;;;;8.90;2.20;;;;;;;-144.73;35.79;84908.71;110292;1278;22212;-62
2023/06/04 23:40:33;;;;;;;4.90;2.40;;;;;;;-144.73;35.84;84901.20;110300;1278;22138;-61
2023/06/04 23:43:19;;;;;;;6.50;2.70;;;;;;;-144.73;35.79;84911.09;110401;1278;22761;-64
2023/06/04 23:46:05;;;;;;;8.30;2.50;;;;;;;-144.73;35.82;84908.31;110302;1278;22137;-65
2023/06/04 23:48:51;;;;;;;4.80;2.20;;;;;;;-144.73;35.75;84901.98;110416;1278;22136;-61
2023/06/04 23:51:37;;;;;;;7.90;2.50;;;;;;;-144.73;35.78;84901.59;110383;1278;22122;-64
2023/06/04 23:54:23;;;;;;;7.40;3.10;;;;;;;-144.73;35.89;84918.59;110305;1278;22771;-63
2023/06/04 23:57:09;;;;;;;8.10;2.50;;;;;;;-144.73;35.94;84924.92;110321;1278;22843;-62
2023/06/04 23:59:55;;;;;;;9.40;2.20;;;;;;;-144.73;35.97;84936.38;110371;1278;22153;-62
